Time;durP1;ratioP1;P1;durP2;ratioP2;P2;SDS_P1;SDS_P2;PMS_P1;PMS_P2;Temp;Humidity;BMP_temperature;BMP_pressure;BME280_temperature;BME280_humidity;BME280_pressure;Samples;Min_cycle;Max_cycle;Signal;HPM_P1;HPM_P2
2023/01/19 00:00:09;;;;;;;2.97;1.27;;;0.80;99.90;;;;;;5028325;28;20025;-69
2023/01/19 00:02:35;;;;;;;2.20;1.02;;;0.80;99.90;;;;;;5022363;28;20050;-69
2023/01/19 00:05:02;;;;;;;7.35;1.88;;;0.90;99.90;;;;;;5027321;28;20473;-69
2023/01/19 00:07:32;;;;;;;7.70;1.20;;;0.80;99.90;;;;;;5023067;28;20052;-68
2023/01/19 00:09:58;;;;;;;3.20;1.38;;;0.90;99.90;;;;;;5018263;28;20116;-68
2023/01/19 00:12:25;;;;;;;2.50;1.15;;;0.80;99.90;;;;;;5022820;28;20136;-68
2023/01/19 00:14:51;;;;;;;4.10;1.50;;;0.70;99.90;;;;;;5025444;28;20499;-68
2023/01/19 00:17:16;;;;;;;5.75;1.60;;;0.60;99.90;;;;;;5026406;28;20033;-69
2023/01/19 00:19:42;;;;;;;5.90;1.63;;;0.50;99.90;;;;;;5020847;28;20108;-68
2023/01/19 00:22:08;;;;;;;5.68;1.30;;;0.40;99.90;;;;;;5020078;28;20116;-68
2023/01/19 00:24:34;;;;;;;6.13;1.70;;;0.30;99.90;;;;;;5021722;28;20045;-68
2023/01/19 00:27:02;;;;;;;5.85;1.27;;;0.20;99.90;;;;;;5023040;28;20017;-68
2023/01/19 00:29:32;;;;;;;5.40;1.48;;;0.20;99.90;;;;;;5017931;28;20036;-69
2023/01/19 00:32:02;;;;;;;5.45;1.85;;;0.10;99.90;;;;;;5026658;28;20014;-69
2023/01/19 00:34:35;;;;;;;4.88;1.98;;;0.00;99.90;;;;;;5010176;28;21109;-68
2023/01/19 00:37:03;;;;;;;3.38;1.92;;;0.00;99.90;;;;;;5025803;28;20030;-69
2023/01/19 00:39:28;;;;;;;4.55;1.35;;;-0.10;99.90;;;;;;5017233;28;20036;-69
2023/01/19 00:44:39;;;;;;;7.22;2.22;;;-0.10;99.90;;;;;;5027281;28;20080;-69
2023/01/19 00:47:05;;;;;;;4.13;1.30;;;-0.30;99.90;;;;;;5021634;28;20049;-68
2023/01/19 00:49:30;;;;;;;4.85;1.58;;;-0.40;99.90;;;;;;5021054;28;20033;-68
2023/01/19 00:51:56;;;;;;;6.85;1.30;;;-0.40;99.90;;;;;;5011631;28;20061;-68
2023/01/19 00:54:22;;;;;;;5.38;1.33;;;-0.60;99.90;;;;;;5021676;28;20026;-68
2023/01/19 00:56:48;;;;;;;7.72;1.40;;;-0.70;99.90;;;;;;5011035;28;20100;-68
2023/01/19 00:59:13;;;;;;;4.00;1.40;;;-0.70;99.90;;;;;;5015113;28;20121;-68
2023/01/19 01:01:40;;;;;;;5.50;1.40;;;-0.60;99.90;;;;;;5019047;28;20501;-68
2023/01/19 01:04:05;;;;;;;4.65;1.60;;;-0.50;99.90;;;;;;5021976;28;20044;-68
2023/01/19 01:06:31;;;;;;;5.07;1.42;;;-0.60;99.90;;;;;;5026924;28;20022;-68
2023/01/19 01:08:57;;;;;;;9.43;1.52;;;-0.60;99.90;;;;;;5016404;28;20117;-68
2023/01/19 01:11:23;;;;;;;4.72;1.63;;;-0.70;99.90;;;;;;5019960;28;20038;-68
2023/01/19 01:13:49;;;;;;;5.88;1.65;;;-0.70;99.90;;;;;;5019360;28;20026;-68
2023/01/19 01:16:15;;;;;;;5.05;1.52;;;-0.50;99.90;;;;;;5015443;28;20026;-69
2023/01/19 01:18:42;;;;;;;4.45;2.08;;;-0.20;99.90;;;;;;5013012;28;20030;-68
2023/01/19 01:21:08;;;;;;;2.63;1.42;;;-0.10;99.90;;;;;;5011952;28;20331;-68
2023/01/19 01:23:34;;;;;;;3.78;1.95;;;-0.10;99.90;;;;;;5023059;28;20033;-68
2023/01/19 01:26:00;;;;;;;4.32;1.75;;;-0.10;99.90;;;;;;5025897;28;20108;-68
2023/01/19 01:28:26;;;;;;;5.93;2.00;;;-0.10;99.90;;;;;;5023827;28;20124;-68
2023/01/19 01:30:53;;;;;;;7.20;2.13;;;-0.10;99.90;;;;;;5015965;28;20117;-68
2023/01/19 01:33:20;;;;;;;3.58;1.35;;;-0.10;99.90;;;;;;5020906;28;20543;-69
2023/01/19 01:35:47;;;;;;;5.68;1.60;;;-0.20;99.90;;;;;;5016628;28;20113;-69
2023/01/19 01:38:14;;;;;;;4.47;1.77;;;-0.30;99.90;;;;;;5013013;28;20041;-68
2023/01/19 01:40:40;;;;;;;5.65;1.90;;;-0.40;99.90;;;;;;5014920;28;20021;-68
2023/01/19 01:43:13;;;;;;;7.90;2.92;;;-0.40;99.90;;;;;;5023933;28;20420;-68
2023/01/19 01:56:50;;;;;;;8.63;2.05;;;-0.40;99.90;;;;;;5020979;28;20083;-69
2023/01/19 01:59:25;;;;;;;2.30;1.42;;;-0.20;99.90;;;;;;5023254;28;20021;-69
2023/01/19 02:04:43;;;;;;;9.25;2.13;;;-0.20;99.90;;;;;;5011950;28;20037;-68
2023/01/19 02:15:28;;;;;;;5.18;1.60;;;-0.10;99.90;;;;;;5025157;28;20483;-69
2023/01/19 02:17:57;;;;;;;7.55;1.95;;;-0.30;99.90;;;;;;5026060;28;20037;-69
2023/01/19 02:20:26;;;;;;;3.75;1.52;;;-0.30;99.90;;;;;;5028125;28;20018;-69
2023/01/19 02:22:57;;;;;;;4.47;1.58;;;-0.40;99.90;;;;;;5024574;28;20524;-69
2023/01/19 02:25:24;;;;;;;8.73;1.52;;;-0.30;99.90;;;;;;5024854;28;20026;-69
2023/01/19 02:27:51;;;;;;;5.00;1.98;;;-0.30;99.90;;;;;;5029869;28;20033;-69
2023/01/19 02:30:17;;;;;;;3.47;1.52;;;-0.20;99.90;;;;;;5023833;28;20026;-69
2023/01/19 02:32:43;;;;;;;5.72;1.48;;;0.00;99.90;;;;;;5028691;28;20110;-69
2023/01/19 02:35:10;;;;;;;4.22;1.65;;;0.20;99.90;;;;;;5038380;28;20033;-69
2023/01/19 02:37:39;;;;;;;10.70;2.72;;;0.20;99.90;;;;;;5025941;28;20428;-69
2023/01/19 02:40:10;;;;;;;8.15;2.40;;;0.20;99.90;;;;;;5028501;28;20037;-69
2023/01/19 02:42:51;;;;;;;6.38;1.90;;;0.10;99.90;;;;;;5021680;28;20053;-69
2023/01/19 02:45:21;;;;;;;8.18;1.63;;;0.10;99.90;;;;;;5025268;28;20026;-69
2023/01/19 02:47:51;;;;;;;4.97;1.90;;;0.20;99.90;;;;;;5023294;28;20095;-69
2023/01/19 02:50:37;;;;;;;5.45;2.50;;;0.20;99.90;;;;;;5026845;28;20025;-68
2023/01/19 02:53:18;;;;;;;3.78;1.40;;;0.10;99.90;;;;;;5027184;28;20033;-69
2023/01/19 02:55:57;;;;;;;6.50;1.50;;;0.10;99.90;;;;;;5023781;28;20095;-69
2023/01/19 02:59:04;;;;;;;5.85;1.85;;;0.20;99.90;;;;;;5027391;28;20013;-68
2023/01/19 03:02:15;;;;;;;4.07;2.00;;;0.20;99.90;;;;;;5015034;28;20040;-68
2023/01/19 03:04:53;;;;;;;5.18;1.77;;;0.10;99.90;;;;;;5023012;28;20103;-69
2023/01/19 03:07:29;;;;;;;5.03;1.75;;;0.20;99.90;;;;;;5025138;28;20029;-69
2023/01/19 03:10:11;;;;;;;3.92;1.67;;;0.20;99.90;;;;;;5028757;28;20025;-69
2023/01/19 03:13:00;;;;;;;10.63;1.80;;;0.20;99.90;;;;;;5024733;28;20029;-68
2023/01/19 03:15:42;;;;;;;5.10;1.45;;;0.10;99.90;;;;;;5027447;28;20044;-68
2023/01/19 03:18:09;;;;;;;;;;;0.00;99.90;;;;;;5024307;28;20083;-69
2023/01/19 03:20:36;;;;;;;3.15;1.45;;;-0.10;99.90;;;;;;5012507;28;19972;-69
2023/01/19 03:23:07;;;;;;;7.25;1.60;;;-0.20;99.90;;;;;;5021175;28;20679;-69
2023/01/19 03:25:37;;;;;;;5.85;1.40;;;-0.40;99.90;;;;;;5024493;28;20022;-69
2023/01/19 03:28:03;;;;;;;3.47;1.40;;;-0.50;99.90;;;;;;5024161;28;20037;-69
2023/01/19 03:30:44;;;;;;;4.85;1.25;;;-0.60;99.90;;;;;;5023184;28;20029;-70
2023/01/19 03:33:28;;;;;;;6.13;1.58;;;-0.60;99.90;;;;;;5028722;28;20469;-70
2023/01/19 03:36:02;;;;;;;2.70;1.50;;;-0.70;99.90;;;;;;5028464;28;20025;-67
2023/01/19 03:38:33;;;;;;;8.88;2.40;;;-0.60;99.90;;;;;;5023655;28;20029;-68
2023/01/19 03:41:02;;;;;;;2.83;1.30;;;-0.50;99.90;;;;;;5025668;28;20049;-69
2023/01/19 03:43:29;;;;;;;4.57;1.95;;;-0.50;99.90;;;;;;5025882;28;20057;-69
2023/01/19 03:45:56;;;;;;;3.78;1.58;;;-0.50;99.90;;;;;;5025258;28;20038;-69
2023/01/19 03:48:22;;;;;;;6.32;1.63;;;-0.60;99.90;;;;;;5020753;28;20041;-69
2023/01/19 03:50:48;;;;;;;4.43;1.48;;;-0.60;99.90;;;;;;5017982;28;20068;-69
2023/01/19 03:53:15;;;;;;;5.13;1.70;;;-0.60;99.90;;;;;;5026849;28;20473;-69
2023/01/19 03:55:44;;;;;;;4.57;1.88;;;-0.60;99.90;;;;;;5024081;28;20040;-70
2023/01/19 03:58:10;;;;;;;6.50;1.92;;;-0.60;99.90;;;;;;5024011;28;20029;-66
2023/01/19 04:00:37;;;;;;;3.28;1.25;;;-0.60;99.90;;;;;;5018771;28;20440;-68
2023/01/19 04:03:04;;;;;;;4.03;1.55;;;-0.60;99.90;;;;;;5027136;28;20041;-68
2023/01/19 04:05:30;;;;;;;6.10;1.55;;;-0.60;99.90;;;;;;5028723;28;20053;-70
2023/01/19 04:07:56;;;;;;;5.18;1.70;;;-0.50;99.90;;;;;;5022883;28;20568;-68
2023/01/19 04:10:22;;;;;;;3.03;1.00;;;-0.50;99.90;;;;;;5016749;28;20022;-69
2023/01/19 04:12:48;;;;;;;2.88;1.30;;;-0.50;99.90;;;;;;5025804;28;20100;-69
2023/01/19 04:15:14;;;;;;;4.00;1.60;;;-0.50;99.90;;;;;;5023199;28;20484;-68
2023/01/19 04:17:40;;;;;;;4.80;2.10;;;-0.50;99.90;;;;;;5021849;28;20037;-68
2023/01/19 04:20:07;;;;;;;6.45;1.48;;;-0.60;99.90;;;;;;5015229;28;20029;-68
2023/01/19 04:22:34;;;;;;;4.30;1.50;;;-0.50;99.90;;;;;;5025407;28;20025;-68
2023/01/19 04:25:00;;;;;;;2.38;1.33;;;-0.50;99.90;;;;;;5024439;28;20048;-68
2023/01/19 04:27:26;;;;;;;4.88;1.40;;;-0.50;99.90;;;;;;5023691;28;20474;-68
2023/01/19 04:29:51;;;;;;;5.50;1.80;;;-0.30;99.90;;;;;;5025634;28;20029;-69
2023/01/19 04:32:17;;;;;;;4.78;1.50;;;-0.10;99.90;;;;;;5022846;28;20029;-69
2023/01/19 04:34:43;;;;;;;4.72;1.70;;;-0.10;99.90;;;;;;5027258;28;20026;-69
2023/01/19 04:37:09;;;;;;;6.05;1.80;;;-0.10;99.90;;;;;;5021329;28;20172;-69
2023/01/19 04:39:35;;;;;;;4.15;1.40;;;-0.20;99.90;;;;;;5021255;28;20358;-68
2023/01/19 04:42:02;;;;;;;4.93;1.60;;;-0.20;99.90;;;;;;5023281;28;20392;-69
2023/01/19 04:55:12;;;;;;;8.48;1.95;;;-0.40;99.90;;;;;;5028623;28;20075;-69
2023/01/19 04:57:40;;;;;;;6.38;1.98;;;-0.50;99.90;;;;;;5027895;28;20489;-69
2023/01/19 05:00:06;;;;;;;6.18;1.65;;;-0.60;99.90;;;;;;5022182;28;20040;-68
2023/01/19 05:02:32;;;;;;;5.68;2.30;;;-0.60;99.90;;;;;;5021242;28;20040;-69
2023/01/19 05:04:58;;;;;;;6.47;1.85;;;-0.40;99.90;;;;;;5026331;28;20384;-68
2023/01/19 05:07:24;;;;;;;6.82;1.95;;;-0.30;99.90;;;;;;5028058;28;20464;-69
2023/01/19 05:09:50;;;;;;;5.45;1.42;;;-0.20;99.90;;;;;;5025617;28;20121;-70
2023/01/19 05:12:16;;;;;;;4.40;1.63;;;-0.10;99.90;;;;;;5025787;28;20029;-69
2023/01/19 05:14:42;;;;;;;6.35;1.75;;;0.00;99.90;;;;;;5025082;28;20033;-69
2023/01/19 05:17:09;;;;;;;7.78;2.20;;;0.10;99.90;;;;;;5023493;28;20041;-69
2023/01/19 05:19:35;;;;;;;3.85;1.75;;;0.10;99.90;;;;;;5026569;28;20064;-69
2023/01/19 05:22:04;;;;;;;8.63;2.25;;;0.20;99.90;;;;;;5025899;28;20048;-70
2023/01/19 05:24:30;;;;;;;10.25;2.00;;;0.10;99.90;;;;;;5023199;28;20042;-69
2023/01/19 05:26:57;;;;;;;4.93;1.98;;;0.10;99.90;;;;;;5023547;28;20729;-68
2023/01/19 05:29:22;;;;;;;5.25;1.80;;;0.20;99.90;;;;;;5021273;28;20037;-69
2023/01/19 05:31:48;;;;;;;5.32;2.00;;;0.20;99.90;;;;;;5023786;28;20037;-69
2023/01/19 05:34:14;;;;;;;5.32;1.75;;;0.20;99.90;;;;;;5020972;28;20167;-69
2023/01/19 05:36:41;;;;;;;6.97;1.92;;;0.20;99.90;;;;;;5026057;28;20044;-68
2023/01/19 05:39:07;;;;;;;6.90;2.10;;;0.20;99.90;;;;;;5023077;28;20030;-69
2023/01/19 05:41:32;;;;;;;5.20;2.53;;;0.30;99.90;;;;;;5024083;28;20076;-69
2023/01/19 05:43:58;;;;;;;8.90;1.65;;;0.30;99.90;;;;;;5021467;28;20046;-69
2023/01/19 05:46:24;;;;;;;3.83;1.70;;;0.30;99.90;;;;;;5023792;28;20025;-70
2023/01/19 05:48:49;;;;;;;8.38;2.13;;;0.20;99.90;;;;;;5025564;28;20041;-69
2023/01/19 05:51:15;;;;;;;7.72;2.20;;;0.30;99.90;;;;;;5022901;28;20120;-69
2023/01/19 05:53:41;;;;;;;3.65;1.70;;;0.30;99.90;;;;;;5026230;28;20022;-69
2023/01/19 05:56:09;;;;;;;12.23;2.60;;;0.30;99.90;;;;;;5024814;28;20133;-67
2023/01/19 05:58:38;;;;;;;6.28;2.20;;;0.30;99.90;;;;;;5023302;28;20030;-69
2023/01/19 06:01:09;;;;;;;9.60;4.28;;;0.30;99.90;;;;;;5025599;28;20072;-69
2023/01/19 06:03:35;;;;;;;10.45;2.17;;;0.40;99.90;;;;;;5024115;28;20045;-68
2023/01/19 06:06:03;;;;;;;9.02;1.90;;;0.40;99.90;;;;;;5025534;28;20029;-68
2023/01/19 06:08:29;;;;;;;6.82;2.15;;;0.30;99.90;;;;;;5022307;28;20577;-69
2023/01/19 06:10:55;;;;;;;7.75;2.95;;;0.30;99.90;;;;;;5023530;28;20055;-69
2023/01/19 06:13:21;;;;;;;6.88;2.15;;;0.30;99.90;;;;;;5022955;28;20052;-70
2023/01/19 06:15:47;;;;;;;6.38;2.05;;;0.30;99.90;;;;;;5023114;28;20033;-69
2023/01/19 06:18:16;;;;;;;7.40;2.25;;;0.30;99.90;;;;;;5021548;28;20388;-69
2023/01/19 06:20:41;;;;;;;5.95;1.95;;;0.20;99.90;;;;;;5025366;28;20449;-69
2023/01/19 06:23:09;;;;;;;6.43;1.98;;;0.30;99.90;;;;;;5024099;28;20030;-69
2023/01/19 06:25:35;;;;;;;8.93;5.07;;;0.30;99.90;;;;;;5027852;28;20128;-70
2023/01/19 06:28:00;;;;;;;4.63;1.92;;;0.30;99.90;;;;;;5022679;28;20096;-69
2023/01/19 06:30:27;;;;;;;7.55;2.30;;;0.20;99.90;;;;;;5019401;28;20120;-68
2023/01/19 06:32:53;;;;;;;12.50;2.50;;;0.20;99.90;;;;;;5021615;28;20072;-69
2023/01/19 06:35:19;;;;;;;7.53;2.22;;;0.20;99.90;;;;;;5021045;28;20045;-69
2023/01/19 06:37:45;;;;;;;4.78;2.30;;;0.20;99.90;;;;;;5020342;28;20022;-69
2023/01/19 06:40:11;;;;;;;6.00;2.22;;;0.20;99.90;;;;;;5016832;28;20170;-69
2023/01/19 06:42:37;;;;;;;8.75;2.58;;;0.10;99.90;;;;;;5019658;28;20036;-69
2023/01/19 06:45:03;;;;;;;5.75;2.38;;;0.00;99.90;;;;;;5027301;28;20030;-68
2023/01/19 06:47:29;;;;;;;6.93;2.50;;;-0.20;99.90;;;;;;5020023;28;20979;-71
2023/01/19 06:49:55;;;;;;;7.43;2.83;;;-0.30;99.90;;;;;;5023329;28;20021;-70
2023/01/19 06:52:21;;;;;;;5.60;3.42;;;-0.50;99.90;;;;;;5026907;28;20049;-69
2023/01/19 06:54:47;;;;;;;7.28;2.70;;;-0.60;99.90;;;;;;5030015;28;20025;-69
2023/01/19 06:57:13;;;;;;;5.78;2.63;;;-0.50;99.90;;;;;;5026865;28;20203;-69
2023/01/19 06:59:39;;;;;;;7.88;2.67;;;-0.60;99.90;;;;;;5026841;28;20112;-70
2023/01/19 07:02:05;;;;;;;8.07;2.92;;;-0.60;99.90;;;;;;5031676;28;20047;-69
2023/01/19 07:04:31;;;;;;;6.90;2.50;;;-0.60;99.90;;;;;;5027017;28;20482;-69
2023/01/19 07:06:57;;;;;;;6.43;2.88;;;-0.50;99.90;;;;;;5028709;28;20026;-69
2023/01/19 07:09:24;;;;;;;4.78;2.30;;;-0.40;99.90;;;;;;5028622;28;20057;-70
2023/01/19 07:11:50;;;;;;;3.85;2.28;;;-0.40;99.90;;;;;;5029330;28;20374;-69
2023/01/19 07:14:15;;;;;;;8.07;2.65;;;-0.30;99.90;;;;;;5029331;28;20116;-68
2023/01/19 07:16:41;;;;;;;5.97;2.13;;;-0.40;99.90;;;;;;5032387;28;20041;-70
2023/01/19 07:19:09;;;;;;;6.95;2.70;;;-0.40;99.90;;;;;;5032519;28;20108;-69
2023/01/19 07:21:35;;;;;;;6.00;2.63;;;-0.40;99.90;;;;;;5023425;28;20075;-70
2023/01/19 07:24:01;;;;;;;7.20;2.40;;;-0.40;99.90;;;;;;5026179;28;20030;-69
2023/01/19 07:26:27;;;;;;;5.50;2.03;;;-0.40;99.90;;;;;;5027629;28;20033;-69
2023/01/19 07:28:53;;;;;;;7.88;2.47;;;-0.40;99.90;;;;;;5019335;28;20466;-70
2023/01/19 07:31:19;;;;;;;4.82;2.28;;;-0.50;99.90;;;;;;5025812;28;20377;-69
2023/01/19 07:33:46;;;;;;;11.75;2.80;;;-0.50;99.90;;;;;;5025922;28;20033;-69
2023/01/19 07:36:13;;;;;;;10.35;2.60;;;-0.60;99.90;;;;;;5019131;28;20099;-69
2023/01/19 07:38:39;;;;;;;9.30;2.63;;;-0.60;99.90;;;;;;5044919;28;20029;-70
2023/01/19 07:41:08;;;;;;;11.85;3.35;;;-0.60;99.90;;;;;;5031126;28;20512;-67
2023/01/19 07:43:34;;;;;;;4.07;2.25;;;-0.50;99.90;;;;;;5024833;28;20079;-70
2023/01/19 07:46:02;;;;;;;9.38;2.53;;;-0.50;99.90;;;;;;5025511;28;20030;-68
2023/01/19 07:48:28;;;;;;;4.78;3.45;;;-0.50;99.90;;;;;;5023841;28;20045;-69
2023/01/19 07:50:59;;;;;;;6.22;2.88;;;-0.60;99.90;;;;;;5030143;28;20440;-67
2023/01/19 07:53:25;;;;;;;9.20;4.53;;;-0.60;99.90;;;;;;5020516;28;20028;-70
2023/01/19 07:55:57;;;;;;;10.60;3.17;;;-0.60;99.90;;;;;;5026973;28;20041;-69
2023/01/19 07:58:23;;;;;;;8.27;3.42;;;-0.60;99.90;;;;;;5036537;28;20025;-69
2023/01/19 08:00:50;;;;;;;10.80;3.50;;;-0.70;99.90;;;;;;5027355;28;20512;-69
2023/01/19 08:03:16;;;;;;;11.00;4.03;;;-0.80;99.90;;;;;;5021238;28;20069;-69
2023/01/19 08:05:43;;;;;;;11.43;3.38;;;-0.70;99.90;;;;;;5021811;28;20545;-68
2023/01/19 08:08:11;;;;;;;9.18;2.97;;;-0.70;99.90;;;;;;5032930;28;20441;-69
2023/01/19 08:10:37;;;;;;;8.95;3.20;;;-0.70;99.90;;;;;;5028532;28;20061;-68
2023/01/19 08:13:03;;;;;;;9.07;4.20;;;-0.70;99.90;;;;;;5024756;28;20053;-70
2023/01/19 08:15:28;;;;;;;11.35;4.82;;;-0.70;99.90;;;;;;5026304;28;20033;-69
2023/01/19 08:18:04;;;;;;;9.88;4.25;;;-0.70;99.90;;;;;;5028304;28;20389;-68
2023/01/19 08:20:31;;;;;;;10.98;5.40;;;-0.60;99.90;;;;;;5024454;28;20037;-69
2023/01/19 08:23:00;;;;;;;11.48;5.25;;;-0.50;99.90;;;;;;5028014;28;20155;-69
2023/01/19 08:25:33;;;;;;;8.80;4.75;;;-0.50;99.90;;;;;;5025422;28;20107;-68
2023/01/19 08:27:59;;;;;;;11.43;4.63;;;-0.40;99.90;;;;;;5025402;28;20156;-68
2023/01/19 08:30:25;;;;;;;18.52;6.15;;;-0.50;99.90;;;;;;5026718;28;20032;-69
2023/01/19 08:33:02;;;;;;;17.70;6.60;;;-0.50;99.90;;;;;;5027052;28;20025;-70
2023/01/19 08:35:32;;;;;;;12.32;5.85;;;-0.50;99.90;;;;;;5027402;28;20083;-69
2023/01/19 08:38:00;;;;;;;15.15;6.95;;;-0.40;99.90;;;;;;5029171;28;20152;-68
2023/01/19 08:40:37;;;;;;;10.82;5.65;;;-0.40;99.90;;;;;;5028466;28;20032;-69
2023/01/19 08:43:14;;;;;;;17.05;6.97;;;-0.50;99.90;;;;;;5029215;28;20055;-69
2023/01/19 08:45:47;;;;;;;17.15;6.53;;;-0.50;99.90;;;;;;5027510;28;20034;-68
2023/01/19 08:48:17;;;;;;;21.65;5.93;;;-0.50;99.90;;;;;;5026154;28;20378;-68
2023/01/19 08:50:46;;;;;;;15.30;5.40;;;-0.50;99.90;;;;;;5026272;28;20025;-69
2023/01/19 08:53:11;;;;;;;10.80;5.07;;;-0.50;99.90;;;;;;5026556;28;20037;-69
2023/01/19 08:55:38;;;;;;;12.30;5.07;;;-0.50;99.90;;;;;;5027058;28;20496;-69
2023/01/19 08:58:04;;;;;;;11.70;6.35;;;-0.50;99.90;;;;;;5025914;28;20744;-70
2023/01/19 09:00:33;;;;;;;13.00;5.28;;;-0.40;99.90;;;;;;5025503;28;20029;-69
2023/01/19 09:03:01;;;;;;;10.90;5.03;;;-0.40;99.90;;;;;;5036262;28;20397;-69
2023/01/19 09:05:28;;;;;;;15.70;6.55;;;-0.40;99.90;;;;;;5018456;28;20033;-70
2023/01/19 09:07:53;;;;;;;12.68;6.47;;;-0.30;99.90;;;;;;5024099;28;20052;-69
2023/01/19 09:10:19;;;;;;;10.10;5.38;;;-0.20;99.90;;;;;;5018467;28;20485;-69
2023/01/19 09:12:45;;;;;;;13.02;6.55;;;-0.20;99.90;;;;;;5018684;28;20112;-68
2023/01/19 09:15:12;;;;;;;16.95;6.40;;;-0.10;99.90;;;;;;5022282;28;20029;-68
2023/01/19 09:17:41;;;;;;;11.63;5.55;;;-0.10;99.90;;;;;;5025495;28;20099;-69
2023/01/19 09:20:07;;;;;;;10.80;5.55;;;0.00;99.90;;;;;;5026188;28;20053;-69
2023/01/19 09:22:33;;;;;;;7.45;5.28;;;0.00;99.90;;;;;;5022223;28;20065;-69
2023/01/19 09:24:59;;;;;;;17.75;5.15;;;0.00;99.90;;;;;;5025844;28;20072;-71
2023/01/19 09:27:25;;;;;;;11.43;5.72;;;0.10;99.90;;;;;;5022730;28;20033;-70
2023/01/19 09:29:53;;;;;;;16.42;5.75;;;0.00;99.90;;;;;;5022665;28;20026;-68
2023/01/19 09:32:20;;;;;;;12.43;5.53;;;0.10;99.90;;;;;;5023421;28;20060;-69
2023/01/19 09:34:46;;;;;;;13.45;6.10;;;0.10;99.90;;;;;;5026689;28;20079;-69
2023/01/19 09:37:14;;;;;;;10.85;6.35;;;0.10;99.90;;;;;;5022777;28;20026;-68
2023/01/19 09:39:39;;;;;;;14.90;6.78;;;0.10;99.90;;;;;;5026187;28;20091;-70
2023/01/19 09:42:25;;;;;;;20.63;8.27;;;0.10;99.90;;;;;;5026030;28;20488;-69
2023/01/19 09:44:52;;;;;;;12.88;7.40;;;0.20;99.90;;;;;;5021743;28;20069;-70
2023/01/19 09:47:23;;;;;;;13.88;6.25;;;0.30;99.90;;;;;;5021112;28;20164;-68
2023/01/19 09:50:00;;;;;;;13.70;5.75;;;0.30;99.90;;;;;;5027605;28;20064;-69
2023/01/19 09:52:26;;;;;;;15.27;6.32;;;0.30;99.90;;;;;;5021624;28;20079;-69
2023/01/19 09:54:54;;;;;;;12.43;5.72;;;0.20;99.90;;;;;;5023673;28;20030;-69
2023/01/19 09:57:26;;;;;;;13.23;6.53;;;0.30;99.90;;;;;;5019299;28;20446;-70
2023/01/19 09:59:56;;;;;;;13.37;6.90;;;0.30;99.90;;;;;;5021533;28;20030;-70
2023/01/19 10:02:43;;;;;;;14.73;6.35;;;0.30;99.90;;;;;;5020426;28;20380;-70
2023/01/19 10:05:25;;;;;;;11.70;6.20;;;0.30;99.90;;;;;;5024074;28;20068;-69
2023/01/19 10:08:26;;;;;;;13.45;6.72;;;0.40;99.90;;;;;;5022887;28;20021;-69
2023/01/19 10:10:55;;;;;;;12.70;5.97;;;0.40;99.90;;;;;;5020317;28;20075;-68
2023/01/19 10:13:36;;;;;;;20.75;11.70;;;0.50;99.90;;;;;;5016892;28;20060;-70
2023/01/19 10:16:38;;;;;;;10.90;5.43;;;0.50;99.90;;;;;;5021277;28;20075;-69
2023/01/19 10:19:24;;;;;;;7.97;4.85;;;0.80;99.90;;;;;;5019444;28;20278;-71
2023/01/19 10:21:52;;;;;;;11.02;5.40;;;0.80;99.90;;;;;;5020095;28;20143;-69
2023/01/19 10:24:26;;;;;;;25.20;10.63;;;0.80;99.90;;;;;;5019504;28;20583;-70
2023/01/19 10:26:53;;;;;;;35.83;12.65;;;0.80;99.90;;;;;;5023924;28;20040;-61
2023/01/19 10:29:36;;;;;;;22.20;9.55;;;0.80;99.90;;;;;;5024333;28;20029;-71
2023/01/19 10:32:11;;;;;;;16.60;7.72;;;0.80;99.90;;;;;;5023858;28;20128;-71
2023/01/19 10:34:37;;;;;;;20.00;9.68;;;0.80;99.90;;;;;;5023213;28;20527;-69
2023/01/19 10:37:20;;;;;;;18.38;7.43;;;0.90;99.90;;;;;;5029267;28;20363;-70
2023/01/19 10:39:56;;;;;;;15.95;5.80;;;0.90;99.90;;;;;;5017241;28;20029;-69
2023/01/19 10:42:31;;;;;;;11.68;6.68;;;0.90;99.90;;;;;;5017556;28;20029;-70
2023/01/19 10:44:57;;;;;;;13.30;6.55;;;0.80;99.90;;;;;;5020783;28;20065;-70
2023/01/19 10:47:38;;;;;;;15.50;6.22;;;0.80;99.90;;;;;;5020880;28;20470;-70
2023/01/19 10:50:27;;;;;;;9.23;5.70;;;0.80;99.90;;;;;;5017775;28;20532;-71
2023/01/19 10:52:56;;;;;;;11.73;6.53;;;0.80;99.90;;;;;;5019277;28;20504;-70
2023/01/19 10:55:36;;;;;;;14.35;6.82;;;0.90;99.90;;;;;;5022021;28;20036;-69
2023/01/19 10:58:02;;;;;;;10.27;7.05;;;0.90;99.90;;;;;;5023545;28;20071;-69
2023/01/19 11:00:42;;;;;;;11.63;5.30;;;1.00;99.90;;;;;;5020420;28;20041;-70
2023/01/19 11:03:31;;;;;;;15.32;6.88;;;1.10;99.90;;;;;;5023629;28;20041;-70
2023/01/19 11:06:15;;;;;;;9.02;5.38;;;1.30;99.90;;;;;;5018831;28;20033;-72
2023/01/19 11:08:46;;;;;;;12.18;4.65;;;1.40;99.90;;;;;;5018738;28;20478;-69
2023/01/19 11:11:12;;;;;;;8.40;4.72;;;1.40;99.90;;;;;;5024659;28;20547;-69
2023/01/19 11:13:40;;;;;;;13.57;4.97;;;1.50;99.90;;;;;;5022964;28;20104;-70
2023/01/19 11:16:22;;;;;;;9.50;4.45;;;1.60;99.90;;;;;;5019766;28;20030;-71
2023/01/19 11:18:51;;;;;;;;;;;1.60;99.90;;;;;;5021302;28;20029;-71
2023/01/19 11:21:20;;;;;;;12.00;4.55;;;1.50;99.90;;;;;;5025538;28;19916;-70
2023/01/19 11:23:49;;;;;;;7.50;4.45;;;1.60;99.90;;;;;;5018322;28;20474;-71
2023/01/19 11:26:30;;;;;;;10.02;4.10;;;1.70;99.90;;;;;;5026346;28;20040;-70
2023/01/19 11:28:57;;;;;;;8.65;4.35;;;1.90;99.90;;;;;;5019471;28;20021;-70
2023/01/19 11:31:34;;;;;;;12.32;4.43;;;2.10;99.90;;;;;;5020211;28;20470;-70
2023/01/19 11:34:24;;;;;;;7.32;3.30;;;2.50;99.90;;;;;;5021857;28;20037;-69
2023/01/19 11:36:57;;;;;;;5.63;2.58;;;3.40;99.90;;;;;;5026565;28;20468;-70
2023/01/19 11:39:24;;;;;;;;;;;4.30;99.90;;;;;;5021387;28;20030;-69
2023/01/19 11:41:54;;;;;;;8.10;3.10;;;4.70;99.90;;;;;;5023678;28;20361;-69
2023/01/19 11:44:34;;;;;;;7.80;2.63;;;5.20;99.90;;;;;;5022164;28;20413;-70
2023/01/19 11:47:05;;;;;;;6.03;2.42;;;5.60;99.90;;;;;;5022500;28;20032;-70
2023/01/19 11:49:46;;;;;;;6.05;2.50;;;5.90;99.90;;;;;;5023531;28;20168;-70
2023/01/19 11:52:54;;;;;;;6.13;2.40;;;6.10;99.90;;;;;;5020043;28;20115;-70
2023/01/19 11:55:53;;;;;;;3.03;1.92;;;6.50;99.90;;;;;;5001423;28;20480;-70
2023/01/19 11:58:19;;;;;;;7.95;2.88;;;6.90;99.90;;;;;;4993209;28;20042;-70
2023/01/19 12:00:57;;;;;;;5.72;2.78;;;6.80;99.90;;;;;;5005443;28;20041;-70
2023/01/19 12:03:31;;;;;;;5.63;2.83;;;7.00;99.90;;;;;;5000120;28;20575;-71
2023/01/19 12:06:12;;;;;;;4.07;1.98;;;7.10;99.90;;;;;;5000159;28;20038;-70
2023/01/19 12:08:55;;;;;;;3.47;1.85;;;7.20;99.90;;;;;;4994239;28;20034;-70
2023/01/19 12:11:26;;;;;;;3.92;1.15;;;7.40;99.90;;;;;;4981975;28;20033;-70
2023/01/19 12:13:53;;;;;;;5.63;2.07;;;7.50;99.90;;;;;;5001828;28;20049;-69
2023/01/19 12:16:21;;;;;;;4.78;1.40;;;7.40;99.90;;;;;;4996348;28;20349;-70
2023/01/19 12:18:55;;;;;;;5.53;1.13;;;7.40;99.90;;;;;;4993243;28;20186;-70
2023/01/19 12:21:21;;;;;;;4.88;1.90;;;7.50;99.90;;;;;;4991919;28;20033;-69
2023/01/19 12:24:24;;;;;;;3.25;1.33;;;7.70;99.90;;;;;;5000088;28;20049;-69
2023/01/19 12:27:00;;;;;;;4.55;1.23;;;7.80;99.90;;;;;;5014961;28;20052;-71
2023/01/19 12:29:32;;;;;;;4.53;2.13;;;7.90;99.90;;;;;;5020905;28;20131;-70
2023/01/19 12:32:13;;;;;;;6.07;1.77;;;8.00;99.90;;;;;;5022079;28;20162;-70
2023/01/19 12:34:43;;;;;;;3.30;1.30;;;8.10;99.90;;;;;;5025277;28;20029;-69
2023/01/19 12:37:40;;;;;;;4.65;1.65;;;8.10;99.90;;;;;;5025973;28;20116;-70
2023/01/19 12:40:22;;;;;;;3.75;1.52;;;8.20;99.90;;;;;;5008806;28;20026;-71
2023/01/19 12:42:55;;;;;;;3.05;1.67;;;8.50;99.90;;;;;;5021423;28;20069;-70
2023/01/19 12:45:24;;;;;;;5.55;2.70;;;8.50;99.90;;;;;;5022566;28;20041;-68
2023/01/19 12:47:55;;;;;;;3.83;1.70;;;8.40;99.90;;;;;;5022850;28;20025;-68
2023/01/19 12:50:24;;;;;;;5.38;2.05;;;8.40;99.90;;;;;;5018212;28;20436;-68
2023/01/19 12:52:56;;;;;;;5.80;1.75;;;8.80;99.90;;;;;;5021301;28;20064;-68
2023/01/19 12:55:37;;;;;;;4.32;1.58;;;9.00;99.90;;;;;;5021122;28;20056;-69
2023/01/19 12:58:09;;;;;;;5.50;2.25;;;9.20;99.90;;;;;;5021685;28;20065;-69
2023/01/19 13:00:43;;;;;;;3.95;1.70;;;9.00;99.90;;;;;;5025881;28;20496;-70
2023/01/19 13:03:17;;;;;;;4.78;1.90;;;9.50;99.90;;;;;;5018292;28;20140;-70
2023/01/19 13:05:43;;;;;;;3.10;1.40;;;9.30;99.90;;;;;;5016302;28;21261;-70
2023/01/19 13:08:15;;;;;;;4.55;2.17;;;9.20;99.90;;;;;;5014287;28;20029;-70
2023/01/19 13:11:04;;;;;;;4.60;1.58;;;9.30;99.90;;;;;;5021694;28;20033;-70
2023/01/19 13:13:38;;;;;;;6.18;2.20;;;9.20;99.90;;;;;;5015319;28;20029;-70
2023/01/19 13:16:28;;;;;;;2.83;1.60;;;9.20;99.90;;;;;;5021213;28;20030;-71
2023/01/19 13:19:14;;;;;;;4.35;1.70;;;9.10;99.90;;;;;;5023898;28;20152;-73
2023/01/19 13:21:45;;;;;;;5.38;1.63;;;9.00;99.90;;;;;;5020517;28;20508;-71
2023/01/19 13:24:15;;;;;;;5.47;1.77;;;9.00;99.90;;;;;;5026358;28;20033;-72
2023/01/19 13:26:50;;;;;;;5.65;1.60;;;9.00;99.90;;;;;;5025922;28;20030;-71
2023/01/19 13:29:32;;;;;;;8.50;1.85;;;9.20;99.90;;;;;;5020206;28;20060;-70
2023/01/19 13:32:01;;;;;;;;;;;9.40;99.90;;;;;;5017517;28;20030;-71
2023/01/19 13:34:43;;;;;;;4.88;1.90;;;9.40;99.90;;;;;;5010700;28;19917;-71
2023/01/19 13:37:19;;;;;;;11.47;2.10;;;9.50;99.90;;;;;;5022345;28;20029;-70
2023/01/19 13:39:49;;;;;;;4.32;1.45;;;9.80;99.90;;;;;;5026107;28;20375;-71
2023/01/19 13:42:24;;;;;;;4.88;2.03;;;10.10;99.90;;;;;;5019819;28;20030;-69